sensor_id;sensor_type;location;lat;lon;timestamp;pressure;altitude;pressure_sealevel;temperature;humidity
49030;BME280;43337;52.070;4.508;2023-07-29T00:00:48;100848.91;;;18.13;100.00
49030;BME280;43337;52.070;4.508;2023-07-29T00:03:13;100807.38;;;17.86;100.00
49030;BME280;43337;52.070;4.508;2023-07-29T00:05:40;100846.16;;;18.14;100.00
49030;BME280;43337;52.070;4.508;2023-07-29T00:08:06;100845.53;;;18.11;100.00
49030;BME280;43337;52.070;4.508;2023-07-29T00:10:32;100840.94;;;18.13;100.00
49030;BME280;43337;52.070;4.508;2023-07-29T00:13:00;100837.00;;;18.05;100.00
49030;BME280;43337;52.070;4.508;2023-07-29T00:15:26;100841.50;;;18.05;100.00
49030;BME280;43337;52.070;4.508;2023-07-29T00:17:51;100837.00;;;18.05;100.00
49030;BME280;43337;52.070;4.508;2023-07-29T00:20:17;100836.50;;;18.00;100.00
49030;BME280;43337;52.070;4.508;2023-07-29T00:22:42;100828.31;;;17.91;100.00
49030;BME280;43337;52.070;4.508;2023-07-29T00:25:08;100834.28;;;17.94;100.00
49030;BME280;43337;52.070;4.508;2023-07-29T00:27:33;100820.81;;;17.85;100.00
49030;BME280;43337;52.070;4.508;2023-07-29T00:29:58;100822.94;;;17.79;100.00
49030;BME280;43337;52.070;4.508;2023-07-29T00:32:24;100819.13;;;17.84;100.00
49030;BME280;43337;52.070;4.508;2023-07-29T00:34:49;100835.09;;;17.84;100.00
49030;BME280;43337;52.070;4.508;2023-07-29T00:37:14;100803.47;;;17.66;100.00
49030;BME280;43337;52.070;4.508;2023-07-29T00:39:40;100814.00;;;17.68;100.00
49030;BME280;43337;52.070;4.508;2023-07-29T00:42:05;100815.72;;;17.69;100.00
49030;BME280;43337;52.070;4.508;2023-07-29T00:44:31;100818.59;;;17.66;100.00
49030;BME280;43337;52.070;4.508;2023-07-29T00:46:57;100838.84;;;17.68;100.00
49030;BME280;43337;52.070;4.508;2023-07-29T00:49:23;100830.09;;;17.66;100.00
49030;BME280;43337;52.070;4.508;2023-07-29T00:51:49;100832.88;;;17.65;100.00
49030;BME280;43337;52.070;4.508;2023-07-29T00:54:14;100813.19;;;17.54;100.00
49030;BME280;43337;52.070;4.508;2023-07-29T00:56:40;100826.06;;;17.61;100.00
49030;BME280;43337;52.070;4.508;2023-07-29T00:59:05;100806.72;;;17.46;100.00
49030;BME280;43337;52.070;4.508;2023-07-29T01:01:31;100795.44;;;17.42;100.00
49030;BME280;43337;52.070;4.508;2023-07-29T01:03:57;100824.59;;;17.56;100.00
49030;BME280;43337;52.070;4.508;2023-07-29T01:06:53;100830.66;;;17.58;100.00
49030;BME280;43337;52.070;4.508;2023-07-29T01:09:27;100822.25;;;17.52;100.00
49030;BME280;43337;52.070;4.508;2023-07-29T01:15:05;100812.34;;;17.54;100.00
49030;BME280;43337;52.070;4.508;2023-07-29T01:17:55;100808.28;;;17.48;100.00
49030;BME280;43337;52.070;4.508;2023-07-29T01:20:24;100804.91;;;17.46;100.00
49030;BME280;43337;52.070;4.508;2023-07-29T01:22:50;100789.50;;;17.39;100.00
49030;BME280;43337;52.070;4.508;2023-07-29T01:25:16;100810.22;;;17.46;100.00
49030;BME280;43337;52.070;4.508;2023-07-29T01:27:44;100788.84;;;17.35;100.00
49030;BME280;43337;52.070;4.508;2023-07-29T01:30:10;100803.31;;;17.44;100.00
49030;BME280;43337;52.070;4.508;2023-07-29T01:32:43;100797.47;;;17.39;100.00
49030;BME280;43337;52.070;4.508;2023-07-29T01:35:19;100805.34;;;17.40;100.00
49030;BME280;43337;52.070;4.508;2023-07-29T01:37:50;100809.94;;;17.38;100.00
49030;BME280;43337;52.070;4.508;2023-07-29T01:40:17;100806.63;;;17.35;100.00
49030;BME280;43337;52.070;4.508;2023-07-29T01:42:43;100793.25;;;17.23;100.00
49030;BME280;43337;52.070;4.508;2023-07-29T01:45:10;100801.75;;;17.28;100.00
49030;BME280;43337;52.070;4.508;2023-07-29T01:47:36;100791.00;;;17.30;100.00
49030;BME280;43337;52.070;4.508;2023-07-29T01:50:03;100785.91;;;17.27;100.00
49030;BME280;43337;52.070;4.508;2023-07-29T01:52:29;100785.91;;;17.27;100.00
49030;BME280;43337;52.070;4.508;2023-07-29T01:54:54;100777.38;;;17.22;100.00
49030;BME280;43337;52.070;4.508;2023-07-29T01:57:19;100777.69;;;17.17;100.00
49030;BME280;43337;52.070;4.508;2023-07-29T01:59:45;100776.97;;;17.15;100.00
49030;BME280;43337;52.070;4.508;2023-07-29T02:02:10;100774.19;;;17.17;100.00
49030;BME280;43337;52.070;4.508;2023-07-29T02:04:36;100771.13;;;17.10;100.00
49030;BME280;43337;52.070;4.508;2023-07-29T02:07:02;100771.22;;;17.08;100.00
49030;BME280;43337;52.070;4.508;2023-07-29T02:09:27;100757.41;;;17.03;100.00
49030;BME280;43337;52.070;4.508;2023-07-29T02:11:52;100767.53;;;17.11;100.00
49030;BME280;43337;52.070;4.508;2023-07-29T02:14:18;100779.84;;;17.12;100.00
49030;BME280;43337;52.070;4.508;2023-07-29T02:16:43;100754.13;;;17.00;100.00
49030;BME280;43337;52.070;4.508;2023-07-29T02:19:08;100776.34;;;17.12;100.00
49030;BME280;43337;52.070;4.508;2023-07-29T02:21:34;100772.09;;;17.09;100.00
49030;BME280;43337;52.070;4.508;2023-07-29T02:23:59;100761.00;;;17.02;100.00
49030;BME280;43337;52.070;4.508;2023-07-29T02:26:24;100757.41;;;17.03;100.00
49030;BME280;43337;52.070;4.508;2023-07-29T02:28:50;100776.44;;;17.10;100.00
49030;BME280;43337;52.070;4.508;2023-07-29T02:31:24;100771.03;;;17.12;100.00
49030;BME280;43337;52.070;4.508;2023-07-29T02:33:50;100774.75;;;17.09;100.00
49030;BME280;43337;52.070;4.508;2023-07-29T02:36:16;100769.53;;;17.07;100.00
49030;BME280;43337;52.070;4.508;2023-07-29T02:38:42;100726.78;;;16.85;100.00
49030;BME280;43337;52.070;4.508;2023-07-29T02:41:08;100750.38;;;17.02;100.00
49030;BME280;43337;52.070;4.508;2023-07-29T02:43:35;100752.81;;;17.05;100.00
49030;BME280;43337;52.070;4.508;2023-07-29T02:46:00;100744.13;;;17.03;100.00
49030;BME280;43337;52.070;4.508;2023-07-29T02:48:26;100747.72;;;17.02;100.00
49030;BME280;43337;52.070;4.508;2023-07-29T02:50:51;100729.63;;;16.95;100.00
49030;BME280;43337;52.070;4.508;2023-07-29T02:53:17;100696.28;;;16.78;100.00
49030;BME280;43337;52.070;4.508;2023-07-29T02:55:42;100745.19;;;17.01;100.00
49030;BME280;43337;52.070;4.508;2023-07-29T02:58:07;100750.63;;;16.99;100.00
49030;BME280;43337;52.070;4.508;2023-07-29T03:00:33;100743.56;;;16.98;100.00
49030;BME280;43337;52.070;4.508;2023-07-29T03:02:59;100745.72;;;16.93;100.00
49030;BME280;43337;52.070;4.508;2023-07-29T03:05:24;100734.44;;;16.90;100.00
49030;BME280;43337;52.070;4.508;2023-07-29T03:07:52;100742.94;;;16.95;100.00
49030;BME280;43337;52.070;4.508;2023-07-29T03:10:17;100754.66;;;16.92;100.00
49030;BME280;43337;52.070;4.508;2023-07-29T03:12:42;100745.84;;;16.92;100.00
49030;BME280;43337;52.070;4.508;2023-07-29T03:15:08;100748.06;;;16.85;100.00
49030;BME280;43337;52.070;4.508;2023-07-29T03:17:33;100741.47;;;16.78;100.00
49030;BME280;43337;52.070;4.508;2023-07-29T03:19:59;100723.91;;;16.63;100.00
49030;BME280;43337;52.070;4.508;2023-07-29T03:22:24;100752.75;;;16.81;100.00
49030;BME280;43337;52.070;4.508;2023-07-29T03:24:49;100769.88;;;16.90;100.00
49030;BME280;43337;52.070;4.508;2023-07-29T03:27:15;100762.84;;;16.89;100.00
49030;BME280;43337;52.070;4.508;2023-07-29T03:29:41;100758.16;;;16.93;100.00
49030;BME280;43337;52.070;4.508;2023-07-29T03:32:07;100749.56;;;16.89;100.00
49030;BME280;43337;52.070;4.508;2023-07-29T03:34:32;100742.63;;;16.87;100.00
49030;BME280;43337;52.070;4.508;2023-07-29T03:36:59;100761.78;;;16.92;100.00
49030;BME280;43337;52.070;4.508;2023-07-29T03:39:24;100748.38;;;16.93;100.00
49030;BME280;43337;52.070;4.508;2023-07-29T03:41:49;100746.69;;;16.92;100.00
49030;BME280;43337;52.070;4.508;2023-07-29T03:44:15;100741.91;;;16.84;100.00
49030;BME280;43337;52.070;4.508;2023-07-29T03:46:40;100774.31;;;17.02;100.00
49030;BME280;43337;52.070;4.508;2023-07-29T03:49:05;100780.28;;;17.06;100.00
49030;BME280;43337;52.070;4.508;2023-07-29T03:51:31;100763.78;;;17.01;100.00
49030;BME280;43337;52.070;4.508;2023-07-29T03:53:56;100760.94;;;17.04;100.00
49030;BME280;43337;52.070;4.508;2023-07-29T03:56:21;100746.03;;;17.01;100.00
49030;BME280;43337;52.070;4.508;2023-07-29T03:58:47;100756.13;;;17.09;100.00
49030;BME280;43337;52.070;4.508;2023-07-29T04:01:15;100759.53;;;17.11;100.00
49030;BME280;43337;52.070;4.508;2023-07-29T04:03:40;100759.41;;;17.13;100.00
49030;BME280;43337;52.070;4.508;2023-07-29T04:06:05;100757.94;;;17.08;100.00
49030;BME280;43337;52.070;4.508;2023-07-29T04:08:31;100731.69;;;16.91;100.00
49030;BME280;43337;52.070;4.508;2023-07-29T04:10:56;100764.72;;;17.13;100.00
49030;BME280;43337;52.070;4.508;2023-07-29T04:13:22;100747.94;;;17.12;100.00
49030;BME280;43337;52.070;4.508;2023-07-29T04:15:47;100715.50;;;16.94;100.00
49030;BME280;43337;52.070;4.508;2023-07-29T04:18:12;100728.38;;;17.00;100.00
49030;BME280;43337;52.070;4.508;2023-07-29T04:20:38;100745.59;;;17.07;100.00
49030;BME280;43337;52.070;4.508;2023-07-29T04:23:03;100757.94;;;17.08;100.00
49030;BME280;43337;52.070;4.508;2023-07-29T04:25:28;100758.28;;;17.04;100.00
49030;BME280;43337;52.070;4.508;2023-07-29T04:27:54;100763.25;;;17.08;100.00
49030;BME280;43337;52.070;4.508;2023-07-29T04:30:19;100775.50;;;17.11;100.00
49030;BME280;43337;52.070;4.508;2023-07-29T04:32:45;100740.91;;;16.98;100.00
49030;BME280;43337;52.070;4.508;2023-07-29T04:35:13;100767.59;;;17.09;100.00
49030;BME280;43337;52.070;4.508;2023-07-29T04:37:39;100776.34;;;17.12;100.00
49030;BME280;43337;52.070;4.508;2023-07-29T04:40:06;100747.97;;;16.99;100.00
49030;BME280;43337;52.070;4.508;2023-07-29T04:42:31;100772.94;;;17.09;100.00
49030;BME280;43337;52.070;4.508;2023-07-29T04:44:56;100754.63;;;17.05;100.00
49030;BME280;43337;52.070;4.508;2023-07-29T04:47:22;100776.00;;;17.16;100.00
49030;BME280;43337;52.070;4.508;2023-07-29T04:49:48;100772.84;;;17.11;100.00
49030;BME280;43337;52.070;4.508;2023-07-29T04:52:14;100785.59;;;17.19;100.00
49030;BME280;43337;52.070;4.508;2023-07-29T04:54:40;100776.84;;;17.17;100.00
49030;BME280;43337;52.070;4.508;2023-07-29T04:57:05;100790.78;;;17.20;100.00
49030;BME280;43337;52.070;4.508;2023-07-29T04:59:31;100765.69;;;17.12;100.00
49030;BME280;43337;52.070;4.508;2023-07-29T05:01:56;100779.19;;;17.21;100.00
49030;BME280;43337;52.070;4.508;2023-07-29T05:04:22;100755.91;;;17.12;100.00
49030;BME280;43337;52.070;4.508;2023-07-29T05:06:48;100756.03;;;17.11;100.00
49030;BME280;43337;52.070;4.508;2023-07-29T05:09:18;100779.94;;;17.23;100.00
49030;BME280;43337;52.070;4.508;2023-07-29T05:11:47;100776.53;;;17.21;100.00
49030;BME280;43337;52.070;4.508;2023-07-29T05:14:16;100779.81;;;17.25;100.00
49030;BME280;43337;52.070;4.508;2023-07-29T05:16:42;100770.03;;;17.25;100.00
49030;BME280;43337;52.070;4.508;2023-07-29T05:19:08;100773.44;;;17.27;100.00
49030;BME280;43337;52.070;4.508;2023-07-29T05:21:34;100764.59;;;17.27;100.00
49030;BME280;43337;52.070;4.508;2023-07-29T05:23:59;100760.84;;;17.29;100.00
49030;BME280;43337;52.070;4.508;2023-07-29T05:26:24;100762.13;;;17.37;100.00
49030;BME280;43337;52.070;4.508;2023-07-29T05:28:50;100743.09;;;17.30;100.00
49030;BME280;43337;52.070;4.508;2023-07-29T05:31:15;100743.19;;;17.28;100.00
49030;BME280;43337;52.070;4.508;2023-07-29T05:33:42;100746.94;;;17.26;100.00
49030;BME280;43337;52.070;4.508;2023-07-29T05:36:07;100758.75;;;17.35;100.00
49030;BME280;43337;52.070;4.508;2023-07-29T05:38:32;100748.31;;;17.31;100.00
49030;BME280;43337;52.070;4.508;2023-07-29T05:40:59;100764.22;;;17.44;100.00
49030;BME280;43337;52.070;4.508;2023-07-29T05:43:26;100749.44;;;17.40;100.00
49030;BME280;43337;52.070;4.508;2023-07-29T05:45:51;100757.72;;;17.48;100.00
49030;BME280;43337;52.070;4.508;2023-07-29T05:48:17;100753.72;;;17.43;100.00
49030;BME280;43337;52.070;4.508;2023-07-29T05:50:42;100762.81;;;17.51;100.00
49030;BME280;43337;52.070;4.508;2023-07-29T05:53:08;100762.72;;;17.53;100.00
49030;BME280;43337;52.070;4.508;2023-07-29T05:55:33;100779.22;;;17.58;100.00
49030;BME280;43337;52.070;4.508;2023-07-29T05:57:58;100749.22;;;17.43;100.00
49030;BME280;43337;52.070;4.508;2023-07-29T06:00:25;100755.31;;;17.45;100.00
49030;BME280;43337;52.070;4.508;2023-07-29T06:02:51;100773.88;;;17.58;100.00
49030;BME280;43337;52.070;4.508;2023-07-29T06:05:16;100757.50;;;17.51;100.00
49030;BME280;43337;52.070;4.508;2023-07-29T06:07:41;100777.47;;;17.70;100.00
49030;BME280;43337;52.070;4.508;2023-07-29T06:10:13;100784.25;;;17.74;100.00
49030;BME280;43337;52.070;4.508;2023-07-29T06:12:38;100779.59;;;17.77;100.00
49030;BME280;43337;52.070;4.508;2023-07-29T06:15:04;100779.38;;;17.80;100.00
49030;BME280;43337;52.070;4.508;2023-07-29T06:17:30;100780.94;;;17.83;100.00
49030;BME280;43337;52.070;4.508;2023-07-29T06:19:55;100775.53;;;17.85;100.00
49030;BME280;43337;52.070;4.508;2023-07-29T06:22:21;100775.97;;;17.78;100.00
49030;BME280;43337;52.070;4.508;2023-07-29T06:24:46;100789.47;;;17.88;100.00
49030;BME280;43337;52.070;4.508;2023-07-29T06:27:11;100780.28;;;17.92;100.00
49030;BME280;43337;52.070;4.508;2023-07-29T06:29:37;100787.19;;;17.95;100.00
49030;BME280;43337;52.070;4.508;2023-07-29T06:32:02;100760.59;;;17.82;100.00
49030;BME280;43337;52.070;4.508;2023-07-29T06:34:28;100779.81;;;17.98;100.00
49030;BME280;43337;52.070;4.508;2023-07-29T06:36:53;100792.75;;;17.92;100.00
49030;BME280;43337;52.070;4.508;2023-07-29T06:39:18;100782.09;;;17.92;100.00
49030;BME280;43337;52.070;4.508;2023-07-29T06:41:44;100783.78;;;17.93;100.00
49030;BME280;43337;52.070;4.508;2023-07-29T06:44:09;100771.88;;;17.86;100.00
49030;BME280;43337;52.070;4.508;2023-07-29T06:46:34;100794.94;;;17.98;100.00
49030;BME280;43337;52.070;4.508;2023-07-29T06:49:00;100789.41;;;18.01;100.00
49030;BME280;43337;52.070;4.508;2023-07-29T06:51:25;100785.88;;;18.00;100.00
49030;BME280;43337;52.070;4.508;2023-07-29T06:53:50;100777.78;;;18.02;100.00
49030;BME280;43337;52.070;4.508;2023-07-29T06:56:16;100785.94;;;18.12;100.00
49030;BME280;43337;52.070;4.508;2023-07-29T06:58:41;100774.09;;;18.16;100.00
49030;BME280;43337;52.070;4.508;2023-07-29T07:01:07;100784.53;;;18.19;100.00
49030;BME280;43337;52.070;4.508;2023-07-29T07:03:32;100781.38;;;18.25;100.00
49030;BME280;43337;52.070;4.508;2023-07-29T07:05:58;100782.00;;;18.28;100.00
49030;BME280;43337;52.070;4.508;2023-07-29T07:08:23;100758.50;;;18.22;100.00
49030;BME280;43337;52.070;4.508;2023-07-29T07:10:49;100786.91;;;18.46;100.00
49030;BME280;43337;52.070;4.508;2023-07-29T07:13:14;100782.31;;;18.59;100.00
49030;BME280;43337;52.070;4.508;2023-07-29T07:15:39;100786.00;;;18.69;100.00
49030;BME280;43337;52.070;4.508;2023-07-29T07:18:05;100776.44;;;18.78;100.00
49030;BME280;43337;52.070;4.508;2023-07-29T07:20:30;100777.81;;;18.95;100.00
49030;BME280;43337;52.070;4.508;2023-07-29T07:22:55;100777.06;;;19.04;100.00
49030;BME280;43337;52.070;4.508;2023-07-29T07:25:21;100788.72;;;19.14;100.00
49030;BME280;43337;52.070;4.508;2023-07-29T07:27:47;100760.56;;;19.10;100.00
49030;BME280;43337;52.070;4.508;2023-07-29T07:30:12;100793.69;;;19.41;100.00
49030;BME280;43337;52.070;4.508;2023-07-29T07:32:37;100791.63;;;19.45;100.00
49030;BME280;43337;52.070;4.508;2023-07-29T07:35:03;100768.44;;;19.34;100.00
49030;BME280;43337;52.070;4.508;2023-07-29T07:37:29;100795.75;;;19.49;100.00
49030;BME280;43337;52.070;4.508;2023-07-29T07:39:54;100797.06;;;19.43;100.00
49030;BME280;43337;52.070;4.508;2023-07-29T07:42:20;100789.22;;;19.31;100.00
49030;BME280;43337;52.070;4.508;2023-07-29T07:44:45;100783.88;;;19.19;100.00
49030;BME280;43337;52.070;4.508;2023-07-29T07:47:10;100791.63;;;19.22;100.00
49030;BME280;43337;52.070;4.508;2023-07-29T07:49:36;100796.59;;;19.27;100.00
49030;BME280;43337;52.070;4.508;2023-07-29T07:52:01;100805.59;;;19.26;100.00
49030;BME280;43337;52.070;4.508;2023-07-29T07:54:26;100799.88;;;19.19;100.00
49030;BME280;43337;52.070;4.508;2023-07-29T07:56:52;100794.03;;;19.25;100.00
49030;BME280;43337;52.070;4.508;2023-07-29T07:59:17;100793.47;;;19.22;100.00
49030;BME280;43337;52.070;4.508;2023-07-29T08:01:42;100810.56;;;19.31;100.00
49030;BME280;43337;52.070;4.508;2023-07-29T08:04:08;100802.41;;;19.32;100.00
49030;BME280;43337;52.070;4.508;2023-07-29T08:06:33;100806.91;;;19.43;100.00
49030;BME280;43337;52.070;4.508;2023-07-29T08:08:58;100813.09;;;19.55;100.00
49030;BME280;43337;52.070;4.508;2023-07-29T08:11:24;100808.34;;;19.69;100.00
49030;BME280;43337;52.070;4.508;2023-07-29T08:13:50;100796.66;;;19.82;100.00
49030;BME280;43337;52.070;4.508;2023-07-29T08:16:15;100801.13;;;19.92;100.00
49030;BME280;43337;52.070;4.508;2023-07-29T08:18:40;100804.16;;;19.99;100.00
49030;BME280;43337;52.070;4.508;2023-07-29T08:21:06;100803.53;;;20.07;100.00
49030;BME280;43337;52.070;4.508;2023-07-29T08:23:32;100809.38;;;20.21;100.00
49030;BME280;43337;52.070;4.508;2023-07-29T08:26:00;100822.13;;;20.29;100.00
49030;BME280;43337;52.070;4.508;2023-07-29T08:28:39;100823.94;;;20.29;100.00
49030;BME280;43337;52.070;4.508;2023-07-29T08:31:05;100830.44;;;20.26;100.00
49030;BME280;43337;52.070;4.508;2023-07-29T08:33:32;100804.13;;;20.10;100.00
49030;BME280;43337;52.070;4.508;2023-07-29T08:36:00;100820.44;;;20.28;100.00
49030;BME280;43337;52.070;4.508;2023-07-29T08:38:25;100819.19;;;20.32;100.00
49030;BME280;43337;52.070;4.508;2023-07-29T08:40:57;100816.78;;;20.29;100.00
49030;BME280;43337;52.070;4.508;2023-07-29T08:43:29;100814.25;;;20.28;100.00
49030;BME280;43337;52.070;4.508;2023-07-29T08:46:00;100835.13;;;20.34;100.00
49030;BME280;43337;52.070;4.508;2023-07-29T08:48:32;100819.44;;;20.29;100.00
49030;BME280;43337;52.070;4.508;2023-07-29T08:51:01;100824.28;;;20.35;100.00
49030;BME280;43337;52.070;4.508;2023-07-29T08:53:28;100834.25;;;20.33;100.00
49030;BME280;43337;52.070;4.508;2023-07-29T08:55:54;100825.91;;;20.27;100.00
49030;BME280;43337;52.070;4.508;2023-07-29T08:58:21;100835.84;;;20.36;100.00
49030;BME280;43337;52.070;4.508;2023-07-29T09:00:47;100840.19;;;20.37;100.00
49030;BME280;43337;52.070;4.508;2023-07-29T09:03:12;100826.81;;;20.37;100.00
49030;BME280;43337;52.070;4.508;2023-07-29T09:05:38;100830.63;;;20.34;100.00
49030;BME280;43337;52.070;4.508;2023-07-29T09:08:04;100835.50;;;20.29;100.00
49030;BME280;43337;52.070;4.508;2023-07-29T09:10:29;100844.75;;;20.25;100.00
49030;BME280;43337;52.070;4.508;2023-07-29T09:12:55;100846.41;;;20.05;100.00
49030;BME280;43337;52.070;4.508;2023-07-29T09:15:28;100845.84;;;19.79;100.00
49030;BME280;43337;52.070;4.508;2023-07-29T09:17:55;100850.47;;;19.43;100.00
49030;BME280;43337;52.070;4.508;2023-07-29T09:20:27;100843.28;;;19.10;100.00
49030;BME280;43337;52.070;4.508;2023-07-29T09:22:59;100831.66;;;19.00;100.00
49030;BME280;43337;52.070;4.508;2023-07-29T09:25:46;100835.50;;;18.85;100.00
49030;BME280;43337;52.070;4.508;2023-07-29T09:28:14;100838.66;;;18.90;100.00
49030;BME280;43337;52.070;4.508;2023-07-29T09:30:41;100833.22;;;18.91;100.00
49030;BME280;43337;52.070;4.508;2023-07-29T09:33:08;100843.66;;;19.06;100.00
49030;BME280;43337;52.070;4.508;2023-07-29T09:35:35;100853.97;;;19.10;100.00
49030;BME280;43337;52.070;4.508;2023-07-29T09:38:05;100849.50;;;19.11;100.00
49030;BME280;43337;52.070;4.508;2023-07-29T09:40:38;100831.78;;;19.10;100.00
49030;BME280;43337;52.070;4.508;2023-07-29T09:43:05;100818.09;;;19.03;100.00
49030;BME280;43337;52.070;4.508;2023-07-29T09:45:33;100830.31;;;19.17;100.00
49030;BME280;43337;52.070;4.508;2023-07-29T09:47:59;100829.00;;;19.22;100.00
49030;BME280;43337;52.070;4.508;2023-07-29T09:50:25;100829.84;;;19.23;100.00
49030;BME280;43337;52.070;4.508;2023-07-29T09:52:52;100842.22;;;19.24;100.00
49030;BME280;43337;52.070;4.508;2023-07-29T09:55:20;100828.88;;;19.24;100.00
49030;BME280;43337;52.070;4.508;2023-07-29T09:57:46;100826.81;;;19.27;100.00
49030;BME280;43337;52.070;4.508;2023-07-29T10:00:12;100819.19;;;19.23;100.00
49030;BME280;43337;52.070;4.508;2023-07-29T10:02:43;100821.72;;;19.24;100.00
49030;BME280;43337;52.070;4.508;2023-07-29T10:05:09;100818.66;;;19.18;100.00
49030;BME280;43337;52.070;4.508;2023-07-29T10:07:36;100828.41;;;19.19;100.00
49030;BME280;43337;52.070;4.508;2023-07-29T10:10:03;100834.69;;;19.18;100.00
49030;BME280;43337;52.070;4.508;2023-07-29T10:12:31;100844.53;;;19.17;100.00
49030;BME280;43337;52.070;4.508;2023-07-29T10:14:59;100849.38;;;19.12;100.00
49030;BME280;43337;52.070;4.508;2023-07-29T10:17:26;100843.03;;;19.02;100.00
49030;BME280;43337;52.070;4.508;2023-07-29T10:19:51;100847.66;;;19.00;100.00
49030;BME280;43337;52.070;4.508;2023-07-29T10:22:20;100853.72;;;19.02;100.00
49030;BME280;43337;52.070;4.508;2023-07-29T10:24:48;100864.41;;;19.02;100.00
49030;BME280;43337;52.070;4.508;2023-07-29T10:27:17;100853.97;;;18.99;100.00
49030;BME280;43337;52.070;4.508;2023-07-29T10:29:43;100864.91;;;19.07;100.00
49030;BME280;43337;52.070;4.508;2023-07-29T10:32:11;100848.28;;;19.03;100.00
49030;BME280;43337;52.070;4.508;2023-07-29T10:34:36;100856.06;;;19.07;100.00
49030;BME280;43337;52.070;4.508;2023-07-29T10:37:02;100853.84;;;19.00;100.00
49030;BME280;43337;52.070;4.508;2023-07-29T10:39:27;100852.38;;;18.96;100.00
49030;BME280;43337;52.070;4.508;2023-07-29T10:42:00;100851.66;;;18.94;100.00
49030;BME280;43337;52.070;4.508;2023-07-29T10:47:25;100838.06;;;18.86;100.00
49030;BME280;43337;52.070;4.508;2023-07-29T10:49:54;100856.75;;;18.97;100.00
49030;BME280;43337;52.070;4.508;2023-07-29T10:52:32;100854.31;;;18.94;100.00
49030;BME280;43337;52.070;4.508;2023-07-29T10:55:23;100857.50;;;18.99;100.00
49030;BME280;43337;52.070;4.508;2023-07-29T10:57:49;100836.75;;;19.03;100.00
49030;BME280;43337;52.070;4.508;2023-07-29T11:00:15;100845.03;;;19.22;100.00
49030;BME280;43337;52.070;4.508;2023-07-29T11:02:41;100844.66;;;19.38;100.00
49030;BME280;43337;52.070;4.508;2023-07-29T11:05:15;100854.00;;;19.55;100.00
49030;BME280;43337;52.070;4.508;2023-07-29T11:07:45;100841.75;;;19.64;100.00
49030;BME280;43337;52.070;4.508;2023-07-29T11:10:11;100839.16;;;19.85;100.00
49030;BME280;43337;52.070;4.508;2023-07-29T11:15:22;100836.69;;;20.04;100.00
49030;BME280;43337;52.070;4.508;2023-07-29T11:17:50;100839.81;;;20.09;100.00
49030;BME280;43337;52.070;4.508;2023-07-29T11:20:18;100837.16;;;20.09;100.00
49030;BME280;43337;52.070;4.508;2023-07-29T11:22:44;100831.47;;;20.03;100.00
49030;BME280;43337;52.070;4.508;2023-07-29T11:25:12;100836.69;;;20.04;100.00
49030;BME280;43337;52.070;4.508;2023-07-29T11:27:38;100827.09;;;20.02;100.00
49030;BME280;43337;52.070;4.508;2023-07-29T11:30:09;100828.22;;;19.99;100.00
49030;BME280;43337;52.070;4.508;2023-07-29T11:32:35;100828.56;;;19.94;100.00
49030;BME280;43337;52.070;4.508;2023-07-29T11:35:02;100845.34;;;19.96;100.00
49030;BME280;43337;52.070;4.508;2023-07-29T11:37:28;100839.53;;;19.91;100.00
49030;BME280;43337;52.070;4.508;2023-07-29T11:39:54;100844.34;;;19.97;100.00
49030;BME280;43337;52.070;4.508;2023-07-29T11:42:19;100852.13;;;20.00;100.00
49030;BME280;43337;52.070;4.508;2023-07-29T11:44:45;100852.34;;;20.09;100.00
49030;BME280;43337;52.070;4.508;2023-07-29T11:47:12;100840.94;;;20.07;100.00
49030;BME280;43337;52.070;4.508;2023-07-29T11:49:40;100834.63;;;20.08;100.00
49030;BME280;43337;52.070;4.508;2023-07-29T11:52:09;100823.53;;;20.12;100.00
49030;BME280;43337;52.070;4.508;2023-07-29T11:54:36;100852.22;;;20.42;100.00
49030;BME280;43337;52.070;4.508;2023-07-29T11:57:09;100842.59;;;20.51;100.00
49030;BME280;43337;52.070;4.508;2023-07-29T11:59:36;100846.56;;;20.68;100.00
49030;BME280;43337;52.070;4.508;2023-07-29T12:02:05;100848.03;;;20.82;100.00
49030;BME280;43337;52.070;4.508;2023-07-29T12:04:34;100841.97;;;20.80;100.00
49030;BME280;43337;52.070;4.508;2023-07-29T12:07:00;100843.84;;;20.89;100.00
49030;BME280;43337;52.070;4.508;2023-07-29T12:09:26;100827.34;;;20.84;100.00
49030;BME280;43337;52.070;4.508;2023-07-29T12:11:52;100845.53;;;20.90;100.00
49030;BME280;43337;52.070;4.508;2023-07-29T12:14:18;100846.19;;;20.82;100.00
49030;BME280;43337;52.070;4.508;2023-07-29T12:16:44;100844.06;;;20.76;100.00
49030;BME280;43337;52.070;4.508;2023-07-29T12:19:13;100848.94;;;20.71;100.00
49030;BME280;43337;52.070;4.508;2023-07-29T12:21:41;100842.03;;;20.68;100.00
49030;BME280;43337;52.070;4.508;2023-07-29T12:24:06;100835.31;;;20.74;100.00
49030;BME280;43337;52.070;4.508;2023-07-29T12:26:32;100833.38;;;20.76;100.00
49030;BME280;43337;52.070;4.508;2023-07-29T12:28:58;100836.47;;;20.81;100.00
49030;BME280;43337;52.070;4.508;2023-07-29T12:31:32;100821.84;;;20.85;100.00
49030;BME280;43337;52.070;4.508;2023-07-29T12:33:58;100829.22;;;20.93;100.00
49030;BME280;43337;52.070;4.508;2023-07-29T12:36:41;100826.94;;;20.88;100.00
49030;BME280;43337;52.070;4.508;2023-07-29T12:41:43;100833.44;;;21.16;100.00
49030;BME280;43337;52.070;4.508;2023-07-29T12:44:09;100809.97;;;21.30;100.00
49030;BME280;43337;52.070;4.508;2023-07-29T12:46:34;100818.38;;;21.56;100.00
49030;BME280;43337;52.070;4.508;2023-07-29T12:48:59;100834.25;;;21.78;100.00